Time;durP1;ratioP1;P1;durP2;ratioP2;P2;SDS_P1;SDS_P2;PMS_P1;PMS_P2;Temp;Humidity;BMP_temperature;BMP_pressure;BME280_temperature;BME280_humidity;BME280_pressure;Samples;Min_cycle;Max_cycle;Signal;HPM_P1;HPM_P2
2021/08/30 00:01:16;;;;;;;;;;;16.50;99.90;;;;;;5061828;28;20041;-80
2021/08/30 00:03:43;;;;;;;6.95;4.00;;;16.50;99.90;;;;;;5062697;28;19916;-80
2021/08/30 00:06:09;;;;;;;6.20;4.32;;;16.50;99.90;;;;;;5059885;28;20406;-79
2021/08/30 00:08:35;;;;;;;4.97;4.22;;;16.50;99.90;;;;;;5048648;28;20048;-80
2021/08/30 00:11:00;;;;;;;;;;;16.50;99.90;;;;;;5057211;28;20051;-79
2021/08/30 00:13:26;;;;;;;4.10;3.35;;;16.60;99.90;;;;;;5061674;28;19978;-80
2021/08/30 00:15:51;;;;;;;;;;;16.60;99.90;;;;;;5056537;28;20056;-80
2021/08/30 00:18:17;;;;;;;9.48;5.15;;;16.60;99.90;;;;;;5054180;28;19920;-78
2021/08/30 00:20:43;;;;;;;;;;;16.60;99.90;;;;;;5059191;28;20045;-79
2021/08/30 00:23:08;;;;;;;10.88;4.35;;;16.60;99.90;;;;;;5087397;28;19917;-79
2021/08/30 00:25:34;;;;;;;;;;;16.60;99.90;;;;;;5061949;28;20116;-79
2021/08/30 00:28:00;;;;;;;3.75;3.17;;;16.60;99.90;;;;;;5053214;28;19920;-79
2021/08/30 00:30:27;;;;;;;;;;;16.60;99.90;;;;;;5057791;28;20055;-80
2021/08/30 00:32:53;;;;;;;7.40;5.55;;;16.70;99.90;;;;;;5066814;28;19922;-80
2021/08/30 00:35:19;;;;;;;7.18;3.10;;;16.60;99.90;;;;;;5053371;28;20068;-78
2021/08/30 00:37:47;;;;;;;7.63;3.78;;;16.70;99.90;;;;;;5051825;28;20041;-79
2021/08/30 00:40:13;;;;;;;8.18;3.90;;;16.70;99.90;;;;;;5086201;28;20409;-79
2021/08/30 00:42:39;;;;;;;6.13;3.22;;;16.70;99.90;;;;;;5054568;28;20366;-79
2021/08/30 00:45:07;;;;;;;7.82;3.72;;;16.70;99.90;;;;;;5038630;28;20036;-81
2021/08/30 00:47:33;;;;;;;7.35;3.33;;;16.70;99.90;;;;;;5051911;28;20037;-79
2021/08/30 00:49:59;;;;;;;8.68;4.53;;;16.70;99.90;;;;;;5035803;28;20052;-79
2021/08/30 00:52:25;;;;;;;6.70;3.60;;;16.70;99.90;;;;;;5017003;28;20053;-80
2021/08/30 00:54:52;;;;;;;7.80;3.83;;;16.80;99.90;;;;;;5054250;28;20099;-79
2021/08/30 00:57:18;;;;;;;6.45;5.15;;;16.80;99.90;;;;;;5042243;28;20053;-79
2021/08/30 00:59:43;;;;;;;7.57;3.97;;;16.80;99.90;;;;;;5040697;28;20043;-79
2021/08/30 01:02:09;;;;;;;;;;;16.80;99.90;;;;;;5032922;28;20040;-81
2021/08/30 01:04:37;;;;;;;10.90;4.55;;;16.80;99.90;;;;;;5056433;28;19951;-81
2021/08/30 01:07:12;;;;;;;8.35;5.47;;;16.80;99.90;;;;;;5055516;28;20098;-78
2021/08/30 01:09:56;;;;;;;6.30;4.50;;;16.80;99.90;;;;;;5067518;28;20131;-79
2021/08/30 01:12:31;;;;;;;6.43;4.18;;;16.80;99.90;;;;;;5057684;28;20051;-82
2021/08/30 01:15:04;;;;;;;13.75;6.15;;;16.80;99.90;;;;;;5046587;28;20494;-81
2021/08/30 01:17:35;;;;;;;6.60;3.65;;;16.80;99.90;;;;;;5058328;28;20052;-80
2021/08/30 01:20:08;;;;;;;8.00;5.95;;;16.80;99.90;;;;;;5054277;28;20135;-78
2021/08/30 01:22:36;;;;;;;7.22;4.70;;;16.90;99.90;;;;;;5051385;28;20502;-78
2021/08/30 01:25:02;;;;;;;9.50;4.88;;;16.90;99.90;;;;;;5055358;28;20049;-80
2021/08/30 01:27:30;;;;;;;13.90;5.40;;;16.80;99.90;;;;;;5054594;28;20041;-79
2021/08/30 01:30:04;;;;;;;8.43;4.53;;;16.90;99.90;;;;;;5050949;28;20049;-81
2021/08/30 01:32:36;;;;;;;9.70;5.25;;;16.80;99.90;;;;;;5049642;28;20127;-79
2021/08/30 01:35:09;;;;;;;9.35;3.83;;;16.80;99.90;;;;;;5050211;28;20053;-79
2021/08/30 01:37:38;;;;;;;8.05;4.80;;;16.80;99.90;;;;;;5064347;28;20475;-80
2021/08/30 01:40:06;;;;;;;5.53;3.97;;;16.80;99.90;;;;;;5069002;28;20041;-79
2021/08/30 01:42:34;;;;;;;6.18;4.57;;;16.80;99.90;;;;;;5067000;28;20132;-79
2021/08/30 01:45:03;;;;;;;8.75;3.58;;;16.80;99.90;;;;;;5051340;28;20041;-80
2021/08/30 01:47:30;;;;;;;9.98;4.88;;;16.80;99.90;;;;;;5056121;28;20575;-79
2021/08/30 01:50:04;;;;;;;6.43;3.10;;;16.80;99.90;;;;;;5057737;28;20501;-80
2021/08/30 01:52:40;;;;;;;5.07;4.07;;;16.80;99.90;;;;;;5057917;28;20052;-78
2021/08/30 01:55:58;;;;;;;11.23;4.20;;;16.80;99.90;;;;;;5057269;28;20487;-79
2021/08/30 02:00:44;;;;;;;9.10;4.45;;;16.80;99.90;;;;;;5064159;28;20115;-79
2021/08/30 02:03:23;;;;;;;12.20;5.90;;;16.80;99.90;;;;;;5066313;28;20056;-78
2021/08/30 02:05:54;;;;;;;8.55;4.13;;;16.80;99.90;;;;;;5048324;28;20037;-79
2021/08/30 02:08:24;;;;;;;6.40;4.85;;;16.80;99.90;;;;;;5052705;28;20060;-78
2021/08/30 02:10:53;;;;;;;5.15;3.90;;;16.80;99.90;;;;;;5057679;28;20435;-78
2021/08/30 02:13:20;;;;;;;8.23;4.15;;;16.80;99.90;;;;;;5056447;28;20051;-79
2021/08/30 02:15:47;;;;;;;6.93;4.63;;;16.80;99.90;;;;;;5047609;28;20497;-79
2021/08/30 02:18:31;;;;;;;8.02;4.75;;;16.80;99.90;;;;;;5067815;28;20071;-79
2021/08/30 02:21:05;;;;;;;9.25;4.72;;;16.80;99.90;;;;;;5063501;28;20047;-79
2021/08/30 02:23:37;;;;;;;16.17;4.20;;;16.80;99.90;;;;;;5061430;28;20068;-78
2021/08/30 02:26:10;;;;;;;5.32;4.03;;;16.80;99.90;;;;;;5066947;28;20541;-79
2021/08/30 02:28:39;;;;;;;8.70;4.10;;;16.80;99.90;;;;;;5060247;28;20067;-79
2021/08/30 02:31:06;;;;;;;9.88;4.85;;;16.80;99.90;;;;;;5061226;28;20102;-79
2021/08/30 02:33:32;;;;;;;6.50;3.60;;;16.80;99.90;;;;;;5060348;28;20055;-79
2021/08/30 02:36:03;;;;;;;5.35;4.43;;;16.80;99.90;;;;;;5060974;28;20044;-78
2021/08/30 02:38:31;;;;;;;10.35;5.07;;;16.80;99.90;;;;;;5051568;28;20041;-78
2021/08/30 02:40:59;;;;;;;13.02;5.00;;;16.80;99.90;;;;;;5048313;28;20043;-79
2021/08/30 02:43:25;;;;;;;7.93;4.13;;;16.80;99.90;;;;;;5059850;28;20048;-79
2021/08/30 02:45:52;;;;;;;11.02;4.65;;;16.80;99.90;;;;;;5073534;28;20398;-79
2021/08/30 02:48:18;;;;;;;10.02;4.97;;;16.70;99.90;;;;;;5058476;28;20044;-79
2021/08/30 02:50:45;;;;;;;10.50;4.45;;;16.80;99.90;;;;;;5061834;28;20055;-78
2021/08/30 02:53:11;;;;;;;10.93;5.18;;;16.70;99.90;;;;;;5056577;28;20056;-78
2021/08/30 02:55:36;;;;;;;6.80;4.13;;;16.70;99.90;;;;;;5057107;28;20040;-78
2021/08/30 02:58:05;;;;;;;;;;;16.70;99.90;;;;;;5037588;28;20045;-78
2021/08/30 03:00:32;;;;;;;9.15;4.65;;;16.70;99.90;;;;;;5038340;28;20383;-78
2021/08/30 03:02:59;;;;;;;6.88;4.45;;;16.70;99.90;;;;;;5060504;28;20138;-79
2021/08/30 03:05:27;;;;;;;6.75;3.22;;;16.70;99.90;;;;;;5063371;28;21184;-79
2021/08/30 03:07:53;;;;;;;13.98;4.63;;;16.80;99.90;;;;;;5043274;28;20151;-78
2021/08/30 03:10:18;;;;;;;;;;;16.70;99.90;;;;;;5065294;28;20497;-79
2021/08/30 03:12:46;;;;;;;8.50;5.22;;;16.70;99.90;;;;;;5082338;28;20007;-79
2021/08/30 03:15:16;;;;;;;8.82;4.88;;;16.70;99.90;;;;;;5064339;28;20063;-79
2021/08/30 03:17:44;;;;;;;13.23;5.28;;;16.70;99.90;;;;;;5061635;28;20056;-79
2021/08/30 03:20:31;;;;;;;8.65;5.20;;;16.70;99.90;;;;;;5035666;28;20032;-78
2021/08/30 03:23:00;;;;;;;6.03;4.00;;;16.70;99.90;;;;;;5085638;28;20049;-78
2021/08/30 03:25:29;;;;;;;7.60;4.97;;;16.70;99.90;;;;;;5059235;28;20045;-78
2021/08/30 03:27:56;;;;;;;9.07;5.20;;;16.60;99.90;;;;;;5057096;28;20126;-79
2021/08/30 03:30:22;;;;;;;6.00;4.38;;;16.60;99.90;;;;;;5034839;28;20048;-81
2021/08/30 03:32:48;;;;;;;;;;;16.60;99.90;;;;;;5037640;28;20410;-79
2021/08/30 03:35:15;;;;;;;8.75;4.63;;;16.50;99.90;;;;;;5057112;28;19928;-78
2021/08/30 03:37:43;;;;;;;7.72;4.85;;;16.50;99.90;;;;;;5035843;28;20083;-80
2021/08/30 03:40:11;;;;;;;11.00;5.65;;;16.40;99.90;;;;;;5056734;28;20044;-79
2021/08/30 03:42:38;;;;;;;8.15;5.13;;;16.40;99.90;;;;;;5055725;28;20044;-79
2021/08/30 03:45:06;;;;;;;10.05;5.18;;;16.40;99.90;;;;;;5057460;28;20123;-78
2021/08/30 03:47:32;;;;;;;10.38;5.50;;;16.40;99.90;;;;;;5038399;28;20041;-79
2021/08/30 03:50:00;;;;;;;9.45;5.18;;;16.30;99.90;;;;;;5039478;28;20037;-80
2021/08/30 03:52:26;;;;;;;9.13;4.70;;;16.30;99.90;;;;;;5056527;28;20041;-79
2021/08/30 03:54:52;;;;;;;10.55;5.15;;;16.20;99.90;;;;;;5053957;28;20418;-79
2021/08/30 03:57:18;;;;;;;11.35;4.75;;;16.30;99.90;;;;;;5048297;28;20068;-79
2021/08/30 03:59:44;;;;;;;;;;;16.20;99.90;;;;;;5057257;28;20115;-79
2021/08/30 04:02:13;;;;;;;8.75;5.18;;;16.20;99.90;;;;;;5084854;28;19925;-79
2021/08/30 04:04:40;;;;;;;7.78;4.35;;;16.10;99.90;;;;;;5064910;28;20123;-79
2021/08/30 04:07:07;;;;;;;8.23;5.20;;;16.10;99.90;;;;;;5054574;28;20052;-78
2021/08/30 04:09:34;;;;;;;5.68;3.88;;;16.10;99.90;;;;;;5063071;28;20048;-78
2021/08/30 04:12:00;;;;;;;6.68;4.20;;;16.10;99.90;;;;;;5062221;28;20052;-78
2021/08/30 04:14:26;;;;;;;9.32;5.55;;;16.00;99.90;;;;;;5063543;28;20068;-78
2021/08/30 04:16:52;;;;;;;7.40;3.55;;;16.00;99.90;;;;;;5061668;28;20138;-79
2021/08/30 04:19:17;;;;;;;4.75;3.60;;;16.00;99.90;;;;;;5063639;28;20048;-78
2021/08/30 04:21:43;;;;;;;;;;;16.00;99.90;;;;;;5063243;28;20051;-79
2021/08/30 04:24:09;;;;;;;8.75;4.15;;;16.00;99.90;;;;;;5063836;28;19917;-79
2021/08/30 04:26:35;;;;;;;8.60;4.57;;;16.00;99.90;;;;;;5061477;28;20093;-79
2021/08/30 04:29:00;;;;;;;;;;;15.90;99.90;;;;;;5039295;28;20071;-78
2021/08/30 04:31:26;;;;;;;7.18;4.70;;;16.00;99.90;;;;;;5054065;28;19924;-79
2021/08/30 04:33:52;;;;;;;;;;;16.00;99.90;;;;;;5056833;28;20131;-79
2021/08/30 04:36:18;;;;;;;15.98;5.35;;;16.00;99.90;;;;;;5054075;28;19916;-80
2021/08/30 04:38:43;;;;;;;;;;;16.00;99.90;;;;;;5051211;28;20375;-80
2021/08/30 04:41:09;;;;;;;7.18;4.43;;;16.00;99.90;;;;;;5067634;28;19970;-80
2021/08/30 04:43:35;;;;;;;;;;;16.00;99.90;;;;;;5055952;28;20040;-78
2021/08/30 04:46:00;;;;;;;7.90;4.68;;;16.00;99.90;;;;;;5053582;28;19932;-80
2021/08/30 04:48:26;;;;;;;10.50;4.90;;;16.00;99.90;;;;;;5054347;28;20032;-80
2021/08/30 04:50:52;;;;;;;5.05;3.78;;;16.00;99.90;;;;;;5053450;28;20048;-79
2021/08/30 04:53:17;;;;;;;6.10;3.92;;;16.00;99.90;;;;;;5057546;28;20040;-80
2021/08/30 04:55:43;;;;;;;10.65;4.07;;;16.00;99.90;;;;;;5053373;28;20390;-79
2021/08/30 04:58:11;;;;;;;;;;;16.10;99.90;;;;;;5053800;28;20102;-79
2021/08/30 05:00:37;;;;;;;7.22;3.95;;;16.00;99.90;;;;;;5052872;28;20397;-79
2021/08/30 05:03:03;;;;;;;6.97;4.88;;;16.00;99.90;;;;;;5042077;28;20462;-79
2021/08/30 05:05:29;;;;;;;;;;;16.00;99.90;;;;;;5055959;28;20044;-79
2021/08/30 05:07:54;;;;;;;7.47;4.60;;;16.00;99.90;;;;;;5059830;28;19920;-80
2021/08/30 05:10:20;;;;;;;6.28;4.43;;;16.00;99.90;;;;;;5052016;28;20047;-80
2021/08/30 05:12:46;;;;;;;5.80;4.35;;;16.00;99.90;;;;;;5057851;28;20055;-80
2021/08/30 05:15:11;;;;;;;;;;;16.00;99.90;;;;;;5055306;28;20061;-79
2021/08/30 05:17:37;;;;;;;9.20;4.30;;;16.00;99.90;;;;;;5032009;28;19928;-79
2021/08/30 05:20:04;;;;;;;7.78;5.13;;;16.10;99.90;;;;;;5038007;28;20041;-79
2021/08/30 05:22:30;;;;;;;7.20;2.97;;;16.00;99.90;;;;;;5054004;28;20048;-79
2021/08/30 05:24:56;;;;;;;9.07;4.18;;;16.00;99.90;;;;;;5055866;28;20509;-79
2021/08/30 05:27:21;;;;;;;;;;;16.00;99.90;;;;;;5050457;28;20049;-80
2021/08/30 05:29:48;;;;;;;7.10;5.03;;;16.00;99.90;;;;;;5054857;28;20444;-80
2021/08/30 05:32:14;;;;;;;7.25;4.55;;;16.00;99.90;;;;;;5059065;28;20041;-80
2021/08/30 05:34:40;;;;;;;9.55;5.55;;;16.00;99.90;;;;;;5053960;28;20102;-79
2021/08/30 05:37:06;;;;;;;;;;;16.10;99.90;;;;;;5058319;28;20066;-80
2021/08/30 05:39:31;;;;;;;7.97;5.03;;;16.20;99.90;;;;;;5054319;28;19923;-80
2021/08/30 05:41:57;;;;;;;8.18;5.65;;;16.20;99.90;;;;;;5050913;28;20040;-79
2021/08/30 05:44:23;;;;;;;;;;;16.30;99.90;;;;;;5034371;28;20115;-80
2021/08/30 05:46:50;;;;;;;7.15;5.03;;;16.40;99.90;;;;;;5082701;28;19977;-79
2021/08/30 05:49:16;;;;;;;8.05;4.13;;;16.40;99.90;;;;;;5047329;28;20041;-79
2021/08/30 05:51:42;;;;;;;7.05;3.45;;;16.50;99.90;;;;;;5058304;28;20131;-79
2021/08/30 05:54:08;;;;;;;10.77;5.18;;;16.50;99.90;;;;;;5074788;28;20128;-79
2021/08/30 05:56:33;;;;;;;;;;;16.50;99.90;;;;;;5041565;28;20052;-79
2021/08/30 05:58:59;;;;;;;6.10;3.67;;;16.60;99.90;;;;;;5054840;28;19921;-80
2021/08/30 06:01:24;;;;;;;;;;;16.60;99.90;;;;;;5058366;28;20040;-79
2021/08/30 06:03:50;;;;;;;9.65;3.78;;;16.70;99.90;;;;;;5058841;28;20362;-79
2021/08/30 06:06:16;;;;;;;;;;;16.70;99.90;;;;;;5061779;28;20078;-80
2021/08/30 06:08:41;;;;;;;5.68;4.15;;;16.70;99.90;;;;;;5069037;28;20288;-80
2021/08/30 06:11:07;;;;;;;;;;;16.80;99.90;;;;;;5040237;28;20048;-79
2021/08/30 06:13:33;;;;;;;3.53;2.92;;;16.80;99.90;;;;;;5055119;28;19996;-79
2021/08/30 06:15:58;;;;;;;;;;;16.80;99.90;;;;;;5061182;28;20457;-79
2021/08/30 06:18:26;;;;;;;7.95;4.28;;;16.90;99.90;;;;;;5059096;28;19927;-80
2021/08/30 06:20:52;;;;;;;11.23;5.47;;;16.90;99.90;;;;;;5065367;28;20056;-80
2021/08/30 06:23:17;;;;;;;;;;;17.00;99.90;;;;;;5059066;28;20044;-80
2021/08/30 06:25:43;;;;;;;9.77;5.60;;;17.10;99.90;;;;;;5033997;28;19916;-80
2021/08/30 06:28:09;;;;;;;6.43;3.95;;;17.10;99.90;;;;;;5056345;28;20044;-81
2021/08/30 06:30:35;;;;;;;;;;;17.20;99.90;;;;;;5054274;28;20416;-80
2021/08/30 06:33:01;;;;;;;7.18;4.47;;;17.30;99.90;;;;;;5052919;28;19920;-80
2021/08/30 06:35:27;;;;;;;9.93;5.15;;;17.30;99.90;;;;;;5060443;28;20056;-80
2021/08/30 06:37:52;;;;;;;;;;;17.40;99.90;;;;;;5064042;28;20094;-79
2021/08/30 06:40:20;;;;;;;5.63;3.13;;;17.50;99.90;;;;;;5069834;28;19923;-80
2021/08/30 06:42:46;;;;;;;10.55;4.05;;;17.50;99.90;;;;;;5064719;28;20490;-80
2021/08/30 06:45:11;;;;;;;;;;;17.60;99.90;;;;;;5069790;28;20090;-80
2021/08/30 06:47:37;;;;;;;7.35;4.22;;;17.60;99.90;;;;;;5072328;28;20325;-80
2021/08/30 06:50:06;;;;;;;;;;;17.70;99.90;;;;;;5061093;28;20040;-80
2021/08/30 06:52:32;;;;;;;4.85;3.13;;;17.70;99.90;;;;;;5064818;28;20327;-80
2021/08/30 06:54:57;;;;;;;;;;;17.80;99.90;;;;;;5068602;28;20083;-80
2021/08/30 06:57:23;;;;;;;6.13;4.03;;;17.90;99.90;;;;;;5052280;28;19925;-80
2021/08/30 06:59:48;;;;;;;;;;;17.90;99.90;;;;;;5070127;28;20040;-80
2021/08/30 07:02:14;;;;;;;15.95;4.05;;;18.10;99.90;;;;;;5065055;28;19916;-81
2021/08/30 07:04:40;;;;;;;;;;;18.20;99.90;;;;;;5046258;28;20510;-79
2021/08/30 07:07:05;;;;;;;9.90;4.40;;;18.20;99.90;;;;;;5087832;28;19927;-83
2021/08/30 07:09:31;;;;;;;;;;;18.30;99.90;;;;;;5065939;28;20048;-81
2021/08/30 07:12:00;;;;;;;9.88;5.30;;;18.30;99.90;;;;;;5100318;28;19925;-80
2021/08/30 07:14:26;;;;;;;;;;;18.40;99.90;;;;;;5052660;28;20486;-80
2021/08/30 07:16:51;;;;;;;4.20;3.33;;;18.40;99.90;;;;;;5064071;28;20007;-80
2021/08/30 07:19:17;;;;;;;;;;;18.40;99.90;;;;;;5060615;28;20128;-80
2021/08/30 07:21:43;;;;;;;6.63;3.70;;;18.50;99.90;;;;;;5071485;28;19918;-81
2021/08/30 07:24:08;;;;;;;;;;;18.50;99.90;;;;;;5044597;28;20146;-81
2021/08/30 07:26:34;;;;;;;6.05;4.40;;;18.60;99.90;;;;;;5057081;28;20376;-80
2021/08/30 07:29:00;;;;;;;;;;;18.70;99.90;;;;;;5053333;28;20049;-81
2021/08/30 07:31:25;;;;;;;5.95;3.33;;;18.80;99.90;;;;;;5057359;28;20456;-80
2021/08/30 07:33:53;;;;;;;;;;;18.80;99.90;;;;;;5053016;28;20061;-81
2021/08/30 07:36:20;;;;;;;;;;;18.90;99.90;;;;;;5069787;28;19920;-80
2021/08/30 07:38:45;;;;;;;;;;;18.90;99.90;;;;;;5063570;28;19946;-79
2021/08/30 07:41:11;;;;;;;9.27;3.35;;;19.00;99.90;;;;;;5071951;28;19920;-81
2021/08/30 07:43:47;;;;;;;;;;;19.10;99.90;;;;;;5056085;28;20097;-81
2021/08/30 07:46:19;;;;;;;4.20;3.17;;;19.00;99.90;;;;;;5084143;28;20392;-81
2021/08/30 07:48:45;;;;;;;4.88;3.35;;;19.10;99.90;;;;;;5041507;28;20041;-80
2021/08/30 07:51:10;;;;;;;;;;;19.10;99.90;;;;;;5059621;28;20045;-80
2021/08/30 07:53:36;;;;;;;7.20;3.67;;;19.20;99.90;;;;;;5073000;28;19922;-80
2021/08/30 07:56:02;;;;;;;;;;;19.30;99.90;;;;;;5046562;28;20045;-80
2021/08/30 07:58:27;;;;;;;6.50;4.13;;;19.50;99.90;;;;;;5069446;28;19973;-81
2021/08/30 08:00:53;;;;;;;;;;;19.50;99.90;;;;;;5066702;28;20044;-81
2021/08/30 08:03:19;;;;;;;7.93;3.38;;;19.60;99.90;;;;;;5061106;28;19970;-82
2021/08/30 08:05:44;;;;;;;4.88;2.75;;;19.70;99.90;;;;;;5058410;28;20044;-80
2021/08/30 08:08:10;;;;;;;;;;;19.90;99.90;;;;;;5065054;28;20044;-81
2021/08/30 08:10:36;;;;;;;4.50;2.92;;;19.80;99.90;;;;;;5080545;28;20007;-81
2021/08/30 08:13:01;;;;;;;;;;;19.90;99.90;;;;;;5047625;28;20106;-80
2021/08/30 08:15:27;;;;;;;3.63;2.65;;;19.80;99.90;;;;;;5063874;28;19916;-80
2021/08/30 08:17:53;;;;;;;;;;;19.80;99.90;;;;;;5058027;28;20097;-81
2021/08/30 08:20:18;;;;;;;4.78;3.28;;;19.60;99.90;;;;;;5070437;28;20007;-80
2021/08/30 08:22:44;;;;;;;;;;;19.60;99.90;;;;;;5065001;28;20112;-81
2021/08/30 08:25:11;;;;;;;6.93;2.80;;;19.70;99.90;;;;;;5064984;28;20417;-80
2021/08/30 08:27:37;;;;;;;4.53;2.35;;;19.90;99.90;;;;;;5037753;28;20073;-80
2021/08/30 08:30:05;;;;;;;3.40;2.35;;;19.90;99.90;;;;;;5054073;28;20041;-80
2021/08/30 08:32:30;;;;;;;3.80;2.17;;;20.00;99.90;;;;;;5061637;28;20040;-81
2021/08/30 08:34:56;;;;;;;3.58;2.30;;;20.00;99.90;;;;;;5074421;28;20078;-80
2021/08/30 08:37:22;;;;;;;;;;;19.90;99.90;;;;;;5040654;28;20128;-80
2021/08/30 08:39:47;;;;;;;4.63;2.88;;;20.00;99.90;;;;;;5057816;28;19971;-82
2021/08/30 08:42:13;;;;;;;4.03;2.17;;;20.10;99.90;;;;;;5055497;28;20116;-82
2021/08/30 08:44:39;;;;;;;;;;;20.30;99.90;;;;;;5051339;28;20052;-80
2021/08/30 08:47:07;;;;;;;3.60;2.63;;;20.50;99.90;;;;;;5054362;28;19924;-80
2021/08/30 08:49:32;;;;;;;3.80;1.90;;;21.30;99.90;;;;;;5054609;28;20137;-79
2021/08/30 08:52:01;;;;;;;3.58;2.58;;;20.90;99.90;;;;;;5037891;28;20076;-80
2021/08/30 08:54:27;;;;;;;2.92;1.38;;;20.90;99.90;;;;;;5054303;28;20064;-80
2021/08/30 08:56:52;;;;;;;3.30;2.13;;;20.60;99.90;;;;;;5046942;28;20049;-81
2021/08/30 08:59:18;;;;;;;4.13;2.05;;;20.50;99.90;;;;;;5054530;28;20043;-78
2021/08/30 09:01:44;;;;;;;4.13;2.28;;;20.50;99.90;;;;;;5054606;28;20048;-79
2021/08/30 09:04:10;;;;;;;;;;;20.40;99.90;;;;;;5057781;28;20094;-80
2021/08/30 09:06:43;;;;;;;6.65;2.60;;;20.40;99.90;;;;;;5055304;28;20377;-80
2021/08/30 09:09:11;;;;;;;2.80;1.85;;;20.60;99.90;;;;;;5056081;28;20391;-80
2021/08/30 09:11:44;;;;;;;3.90;1.27;;;20.60;99.90;;;;;;5047361;28;20049;-80
2021/08/30 09:14:24;;;;;;;2.42;1.77;;;20.70;99.90;;;;;;5045194;28;20436;-79
2021/08/30 09:17:03;;;;;;;6.57;2.40;;;20.60;99.90;;;;;;5056445;28;20103;-81
2021/08/30 09:19:29;;;;;;;3.33;1.67;;;20.60;99.90;;;;;;5061893;28;20084;-80
2021/08/30 09:21:54;;;;;;;2.17;1.83;;;20.50;99.90;;;;;;5058647;28;20033;-79
2021/08/30 09:24:21;;;;;;;;;;;20.70;99.90;;;;;;5061737;28;20501;-78
2021/08/30 09:26:50;;;;;;;3.58;2.13;;;20.70;99.90;;;;;;5060972;28;19968;-79
2021/08/30 09:29:21;;;;;;;4.13;2.13;;;20.70;99.90;;;;;;5052468;28;20069;-81
2021/08/30 09:32:09;;;;;;;3.70;2.00;;;20.50;99.90;;;;;;5050277;28;20043;-80
2021/08/30 09:34:38;;;;;;;3.53;1.98;;;20.50;99.90;;;;;;5045679;28;20060;-79
2021/08/30 09:37:06;;;;;;;2.63;1.83;;;20.30;99.90;;;;;;5055206;28;20386;-81
2021/08/30 09:39:33;;;;;;;3.30;2.13;;;20.40;99.90;;;;;;5066916;28;20098;-80
2021/08/30 09:42:00;;;;;;;3.80;2.40;;;20.30;99.90;;;;;;5030707;28;20083;-80
2021/08/30 09:44:28;;;;;;;2.50;1.88;;;20.50;99.90;;;;;;5055296;28;20036;-80
2021/08/30 09:46:54;;;;;;;2.58;1.77;;;20.50;99.90;;;;;;5046573;28;20162;-80
2021/08/30 09:49:23;;;;;;;2.30;2.08;;;20.40;99.90;;;;;;5084654;28;20045;-80
2021/08/30 09:51:51;;;;;;;3.38;2.40;;;20.70;99.90;;;;;;5050491;28;20045;-80
2021/08/30 09:54:20;;;;;;;4.13;2.00;;;20.70;99.90;;;;;;5041571;28;20044;-78
2021/08/30 09:56:49;;;;;;;5.53;1.92;;;20.50;99.90;;;;;;5051941;28;20130;-79
2021/08/30 09:59:17;;;;;;;4.90;2.55;;;20.50;99.90;;;;;;5073063;28;20055;-81
2021/08/30 10:01:45;;;;;;;3.45;2.08;;;20.40;99.90;;;;;;5057716;28;20582;-80
2021/08/30 10:04:15;;;;;;;4.53;2.13;;;20.70;99.90;;;;;;5054665;28;20166;-80
2021/08/30 10:06:41;;;;;;;4.00;2.20;;;20.50;99.90;;;;;;5085200;28;20083;-80
2021/08/30 10:09:12;;;;;;;2.88;2.20;;;20.60;99.90;;;;;;5055353;28;20126;-80
2021/08/30 10:11:39;;;;;;;2.70;1.38;;;20.50;99.90;;;;;;5038664;28;20106;-79
2021/08/30 10:14:07;;;;;;;3.28;2.08;;;20.30;99.90;;;;;;5037889;28;20052;-79
2021/08/30 10:16:36;;;;;;;3.10;2.08;;;20.70;99.90;;;;;;5024293;28;20121;-82
2021/08/30 10:19:02;;;;;;;3.33;2.15;;;20.60;99.90;;;;;;5052840;28;20081;-80
2021/08/30 10:21:29;;;;;;;2.92;1.60;;;20.60;99.90;;;;;;5054149;28;20064;-80
2021/08/30 10:23:54;;;;;;;2.95;1.92;;;20.80;99.90;;;;;;5053646;28;20145;-79
2021/08/30 10:26:23;;;;;;;3.15;1.73;;;20.90;99.90;;;;;;5053877;28;20506;-81
2021/08/30 10:28:49;;;;;;;5.90;2.25;;;20.90;99.90;;;;;;5053865;28;20061;-79
2021/08/30 10:31:22;;;;;;;4.00;1.80;;;20.80;99.90;;;;;;5049886;28;20047;-80
2021/08/30 10:33:54;;;;;;;1.88;1.65;;;21.00;99.90;;;;;;5057006;28;20056;-79
2021/08/30 10:36:26;;;;;;;3.38;1.98;;;20.90;99.90;;;;;;5059080;28;20128;-80
2021/08/30 10:39:03;;;;;;;2.88;2.13;;;21.00;99.90;;;;;;5063016;28;20072;-80
2021/08/30 10:41:37;;;;;;;4.43;2.00;;;20.90;99.90;;;;;;5058482;28;20045;-81
2021/08/30 10:44:16;;;;;;;4.25;1.95;;;21.10;99.90;;;;;;5057836;28;20059;-79
2021/08/30 10:46:49;;;;;;;3.75;2.38;;;21.40;99.90;;;;;;5072110;28;20133;-79
2021/08/30 10:49:21;;;;;;;2.58;1.88;;;21.50;99.90;;;;;;5059191;28;20398;-82
2021/08/30 10:51:48;;;;;;;5.68;2.20;;;21.50;99.90;;;;;;5057611;28;20549;-80
2021/08/30 10:54:18;;;;;;;2.72;1.77;;;21.50;99.90;;;;;;5057930;28;20039;-78
2021/08/30 10:56:57;;;;;;;5.68;2.10;;;21.40;99.90;;;;;;5060581;28;20404;-80
2021/08/30 10:59:25;;;;;;;2.63;1.85;;;21.40;99.90;;;;;;5046064;28;20166;-80
2021/08/30 11:02:03;;;;;;;2.92;1.67;;;21.20;99.90;;;;;;5056601;28;20045;-79
2021/08/30 11:04:37;;;;;;;2.78;1.52;;;21.00;99.90;;;;;;5056110;28;20118;-80
2021/08/30 11:07:05;;;;;;;2.47;1.92;;;21.00;99.90;;;;;;5062811;28;20508;-78
2021/08/30 11:09:31;;;;;;;2.25;1.63;;;21.10;99.90;;;;;;5063737;28;20178;-80
2021/08/30 11:12:11;;;;;;;2.47;1.95;;;21.30;99.90;;;;;;5058326;28;20048;-79
2021/08/30 11:14:37;;;;;;;3.17;1.70;;;21.30;99.90;;;;;;5037709;28;20040;-81
2021/08/30 11:17:03;;;;;;;4.13;2.17;;;21.30;99.90;;;;;;5053756;28;20056;-80
2021/08/30 11:19:29;;;;;;;3.65;2.08;;;21.40;99.90;;;;;;5063377;28;20510;-80
2021/08/30 11:22:00;;;;;;;5.03;2.03;;;21.70;99.90;;;;;;5071814;28;20045;-80
2021/08/30 11:24:43;;;;;;;3.95;1.95;;;21.70;99.90;;;;;;5045250;28;20608;-80
2021/08/30 11:27:28;;;;;;;1.98;1.33;;;21.60;99.90;;;;;;5049897;28;20039;-80
2021/08/30 11:29:56;;;;;;;2.10;1.63;;;21.80;99.90;;;;;;5051461;28;20360;-81
2021/08/30 11:32:25;;;;;;;4.57;2.03;;;21.80;99.90;;;;;;5039668;28;20052;-79
2021/08/30 11:34:52;;;;;;;4.22;2.03;;;21.70;99.90;;;;;;5052561;28;20120;-80
2021/08/30 11:37:23;;;;;;;2.83;1.95;;;21.50;99.90;;;;;;5036127;28;20402;-81
2021/08/30 11:39:50;;;;;;;3.92;2.10;;;21.50;99.90;;;;;;5053016;28;20467;-79
2021/08/30 11:42:21;;;;;;;4.18;2.13;;;21.40;99.90;;;;;;5052681;28;20041;-79
2021/08/30 11:44:47;;;;;;;2.63;1.90;;;21.30;99.90;;;;;;5039826;28;20036;-79
2021/08/30 11:47:18;;;;;;;4.18;1.98;;;21.10;99.90;;;;;;5051496;28;20052;-80
2021/08/30 11:49:49;;;;;;;5.95;2.25;;;21.00;99.90;;;;;;5052814;28;20044;-80
2021/08/30 11:52:18;;;;;;;3.53;2.03;;;21.10;99.90;;;;;;5054075;28;20478;-79
2021/08/30 11:54:57;;;;;;;6.45;2.88;;;21.30;99.90;;;;;;5053030;28;20429;-80
2021/08/30 11:57:24;;;;;;;3.88;1.83;;;21.40;99.90;;;;;;5045832;28;20836;-82
2021/08/30 11:59:54;;;;;;;2.75;1.92;;;21.40;99.90;;;;;;5051782;28;20135;-81
2021/08/30 12:02:20;;;;;;;2.80;2.03;;;21.60;99.90;;;;;;5051683;28;20033;-79
2021/08/30 12:04:46;;;;;;;7.78;2.20;;;21.80;99.90;;;;;;5051966;28;20881;-79
2021/08/30 12:07:15;;;;;;;2.28;1.77;;;21.80;99.90;;;;;;5057793;28;20368;-79
2021/08/30 12:09:46;;;;;;;2.75;2.13;;;21.80;99.90;;;;;;5045636;28;20069;-79
2021/08/30 12:12:16;;;;;;;3.25;2.35;;;22.00;99.90;;;;;;5059256;28;20041;-81
2021/08/30 12:14:57;;;;;;;3.40;1.52;;;22.40;99.90;;;;;;5058525;28;20102;-81
2021/08/30 12:17:23;;;;;;;6.00;2.70;;;22.40;99.90;;;;;;5050297;28;20521;-79
2021/08/30 12:19:54;;;;;;;3.13;1.85;;;22.40;99.90;;;;;;5042411;28;20037;-79
2021/08/30 12:22:40;;;;;;;5.65;2.53;;;22.40;99.90;;;;;;5050150;28;20461;-79
2021/08/30 12:25:25;;;;;;;3.70;2.10;;;22.30;99.90;;;;;;5055487;28;20056;-79
2021/08/30 12:27:52;;;;;;;3.08;2.03;;;22.00;99.90;;;;;;5053924;28;20119;-79
2021/08/30 12:30:27;;;;;;;6.28;2.15;;;22.00;99.90;;;;;;5052199;28;20153;-79
2021/08/30 12:32:58;;;;;;;3.85;2.55;;;21.90;99.90;;;;;;5052120;28;20394;-80
2021/08/30 12:35:39;;;;;;;2.95;2.05;;;21.70;99.90;;;;;;5052496;28;20110;-79
2021/08/30 12:38:11;;;;;;;8.13;2.33;;;21.40;99.90;;;;;;5048398;28;20383;-78
2021/08/30 12:40:39;;;;;;;3.15;2.28;;;21.30;99.90;;;;;;5065186;28;20410;-78
2021/08/30 12:43:06;;;;;;;4.10;2.33;;;21.50;99.90;;;;;;5065397;28;20045;-80
2021/08/30 12:45:33;;;;;;;3.75;2.42;;;21.70;99.90;;;;;;5061531;28;20043;-79
2021/08/30 12:47:59;;;;;;;4.88;2.30;;;21.90;99.90;;;;;;5058727;28;20045;-79
2021/08/30 12:50:25;;;;;;;3.65;2.35;;;22.00;99.90;;;;;;5060638;28;20053;-78
2021/08/30 12:52:52;;;;;;;4.28;2.58;;;22.00;99.90;;;;;;5062195;28;20560;-79
2021/08/30 12:55:17;;;;;;;4.63;2.55;;;21.80;99.90;;;;;;5067289;28;20189;-79
2021/08/30 12:57:43;;;;;;;4.65;2.60;;;21.70;99.90;;;;;;5064816;28;20123;-81
2021/08/30 13:00:11;;;;;;;3.58;2.30;;;21.80;99.90;;;;;;5056066;28;20067;-80
2021/08/30 13:02:42;;;;;;;3.90;2.45;;;21.90;99.90;;;;;;5065098;28;20478;-80
2021/08/30 13:05:12;;;;;;;5.97;3.42;;;21.70;99.90;;;;;;5065541;28;20036;-79
2021/08/30 13:07:39;;;;;;;7.15;2.88;;;21.50;99.90;;;;;;5056118;28;20055;-79